sensor_id;sensor_type;location;lat;lon;timestamp;temperature;humidity
3226;DHT22;1625;49.884;8.666;2023-03-17T00:01:15;7.70;99.90
3226;DHT22;1625;49.884;8.666;2023-03-17T00:03:42;7.80;99.90
3226;DHT22;1625;49.884;8.666;2023-03-17T00:06:13;7.80;99.90
3226;DHT22;1625;49.884;8.666;2023-03-17T00:08:41;7.80;99.90
3226;DHT22;1625;49.884;8.666;2023-03-17T00:11:12;7.80;99.90
3226;DHT22;1625;49.884;8.666;2023-03-17T00:13:38;7.80;99.90
3226;DHT22;1625;49.884;8.666;2023-03-17T00:16:08;7.80;99.90
3226;DHT22;1625;49.884;8.666;2023-03-17T00:18:35;7.80;99.90
3226;DHT22;1625;49.884;8.666;2023-03-17T00:21:01;7.80;99.90
3226;DHT22;1625;49.884;8.666;2023-03-17T00:23:27;7.80;99.90
3226;DHT22;1625;49.884;8.666;2023-03-17T00:25:52;7.80;99.90
3226;DHT22;1625;49.884;8.666;2023-03-17T00:28:24;7.80;99.90
3226;DHT22;1625;49.884;8.666;2023-03-17T00:30:56;7.70;99.90
3226;DHT22;1625;49.884;8.666;2023-03-17T00:33:24;7.70;99.90
3226;DHT22;1625;49.884;8.666;2023-03-17T00:35:51;7.70;99.90
3226;DHT22;1625;49.884;8.666;2023-03-17T00:38:18;7.70;99.90
3226;DHT22;1625;49.884;8.666;2023-03-17T00:40:45;7.70;99.90
3226;DHT22;1625;49.884;8.666;2023-03-17T00:43:11;7.60;99.90
3226;DHT22;1625;49.884;8.666;2023-03-17T00:45:38;7.60;99.90
3226;DHT22;1625;49.884;8.666;2023-03-17T00:48:15;7.60;99.90
3226;DHT22;1625;49.884;8.666;2023-03-17T00:50:42;7.50;99.90
3226;DHT22;1625;49.884;8.666;2023-03-17T00:53:11;7.50;99.90
3226;DHT22;1625;49.884;8.666;2023-03-17T00:55:38;7.50;99.90
3226;DHT22;1625;49.884;8.666;2023-03-17T00:58:25;7.50;99.90
3226;DHT22;1625;49.884;8.666;2023-03-17T01:00:52;7.50;99.90
3226;DHT22;1625;49.884;8.666;2023-03-17T01:03:18;7.40;99.90
3226;DHT22;1625;49.884;8.666;2023-03-17T01:05:45;7.40;99.90
3226;DHT22;1625;49.884;8.666;2023-03-17T01:08:11;7.30;99.90
3226;DHT22;1625;49.884;8.666;2023-03-17T01:10:37;7.40;99.90
3226;DHT22;1625;49.884;8.666;2023-03-17T01:13:04;7.40;99.90
3226;DHT22;1625;49.884;8.666;2023-03-17T01:15:31;7.40;99.90
3226;DHT22;1625;49.884;8.666;2023-03-17T01:17:58;7.40;99.90
3226;DHT22;1625;49.884;8.666;2023-03-17T01:20:30;7.40;99.90
3226;DHT22;1625;49.884;8.666;2023-03-17T01:22:57;7.40;99.90
3226;DHT22;1625;49.884;8.666;2023-03-17T01:25:23;7.40;99.90
3226;DHT22;1625;49.884;8.666;2023-03-17T01:27:48;7.40;99.90
3226;DHT22;1625;49.884;8.666;2023-03-17T01:30:31;7.40;99.90
3226;DHT22;1625;49.884;8.666;2023-03-17T01:32:57;7.40;99.90
3226;DHT22;1625;49.884;8.666;2023-03-17T01:35:24;7.40;99.90
3226;DHT22;1625;49.884;8.666;2023-03-17T01:37:51;7.30;99.90
3226;DHT22;1625;49.884;8.666;2023-03-17T01:40:20;7.30;99.90
3226;DHT22;1625;49.884;8.666;2023-03-17T01:42:51;7.40;99.90
3226;DHT22;1625;49.884;8.666;2023-03-17T01:48:23;7.30;99.90
3226;DHT22;1625;49.884;8.666;2023-03-17T01:50:49;7.30;99.90
3226;DHT22;1625;49.884;8.666;2023-03-17T01:53:18;7.30;99.90
3226;DHT22;1625;49.884;8.666;2023-03-17T01:55:45;7.30;99.90
3226;DHT22;1625;49.884;8.666;2023-03-17T01:58:13;7.20;99.90
3226;DHT22;1625;49.884;8.666;2023-03-17T02:00:40;7.20;99.90
3226;DHT22;1625;49.884;8.666;2023-03-17T02:03:05;7.20;99.90
3226;DHT22;1625;49.884;8.666;2023-03-17T02:05:31;7.20;99.90
3226;DHT22;1625;49.884;8.666;2023-03-17T02:07:58;7.20;99.90
3226;DHT22;1625;49.884;8.666;2023-03-17T02:10:25;7.20;99.90
3226;DHT22;1625;49.884;8.666;2023-03-17T02:12:54;7.10;99.90
3226;DHT22;1625;49.884;8.666;2023-03-17T02:15:21;7.10;99.90
3226;DHT22;1625;49.884;8.666;2023-03-17T02:17:47;7.00;99.90
3226;DHT22;1625;49.884;8.666;2023-03-17T02:22:46;7.10;99.90
3226;DHT22;1625;49.884;8.666;2023-03-17T02:25:12;7.00;99.90
3226;DHT22;1625;49.884;8.666;2023-03-17T02:27:42;7.00;99.90
3226;DHT22;1625;49.884;8.666;2023-03-17T02:30:11;7.00;99.90
3226;DHT22;1625;49.884;8.666;2023-03-17T02:35:05;6.90;99.90
3226;DHT22;1625;49.884;8.666;2023-03-17T02:37:31;6.90;99.90
3226;DHT22;1625;49.884;8.666;2023-03-17T02:39:57;7.00;99.90
3226;DHT22;1625;49.884;8.666;2023-03-17T02:42:25;7.00;99.90
3226;DHT22;1625;49.884;8.666;2023-03-17T02:44:51;6.90;99.90
3226;DHT22;1625;49.884;8.666;2023-03-17T02:47:17;6.90;99.90
3226;DHT22;1625;49.884;8.666;2023-03-17T02:49:43;6.90;99.90
3226;DHT22;1625;49.884;8.666;2023-03-17T02:52:09;6.90;99.90
3226;DHT22;1625;49.884;8.666;2023-03-17T02:54:34;6.90;99.90
3226;DHT22;1625;49.884;8.666;2023-03-17T02:57:00;6.90;99.90
3226;DHT22;1625;49.884;8.666;2023-03-17T02:59:26;6.80;99.90
3226;DHT22;1625;49.884;8.666;2023-03-17T03:01:52;6.80;99.90
3226;DHT22;1625;49.884;8.666;2023-03-17T03:04:18;6.80;99.90
3226;DHT22;1625;49.884;8.666;2023-03-17T03:06:45;6.70;99.90
3226;DHT22;1625;49.884;8.666;2023-03-17T03:09:11;6.60;99.90
3226;DHT22;1625;49.884;8.666;2023-03-17T03:11:37;6.60;99.90
3226;DHT22;1625;49.884;8.666;2023-03-17T03:14:04;6.60;99.90
3226;DHT22;1625;49.884;8.666;2023-03-17T03:16:30;6.60;99.90
3226;DHT22;1625;49.884;8.666;2023-03-17T03:18:56;6.60;99.90
3226;DHT22;1625;49.884;8.666;2023-03-17T03:21:21;6.50;99.90
3226;DHT22;1625;49.884;8.666;2023-03-17T03:23:48;6.50;99.90
3226;DHT22;1625;49.884;8.666;2023-03-17T03:26:13;6.50;99.90
3226;DHT22;1625;49.884;8.666;2023-03-17T03:28:39;6.50;99.90
3226;DHT22;1625;49.884;8.666;2023-03-17T03:31:04;6.50;99.90
3226;DHT22;1625;49.884;8.666;2023-03-17T03:33:30;6.50;99.90
3226;DHT22;1625;49.884;8.666;2023-03-17T03:35:56;6.40;99.90
3226;DHT22;1625;49.884;8.666;2023-03-17T03:38:22;6.40;99.90
3226;DHT22;1625;49.884;8.666;2023-03-17T03:40:47;6.40;99.90
3226;DHT22;1625;49.884;8.666;2023-03-17T03:43:13;6.40;99.90
3226;DHT22;1625;49.884;8.666;2023-03-17T03:45:38;6.40;99.90
3226;DHT22;1625;49.884;8.666;2023-03-17T03:50:30;6.40;99.90
3226;DHT22;1625;49.884;8.666;2023-03-17T03:52:56;6.30;99.90
3226;DHT22;1625;49.884;8.666;2023-03-17T03:55:22;6.20;99.90
3226;DHT22;1625;49.884;8.666;2023-03-17T03:57:47;6.30;99.90
3226;DHT22;1625;49.884;8.666;2023-03-17T04:00:13;6.10;99.90
3226;DHT22;1625;49.884;8.666;2023-03-17T04:02:40;6.20;99.90
3226;DHT22;1625;49.884;8.666;2023-03-17T04:05:07;6.20;99.90
3226;DHT22;1625;49.884;8.666;2023-03-17T04:07:34;6.20;99.90
3226;DHT22;1625;49.884;8.666;2023-03-17T04:10:00;6.20;99.90
3226;DHT22;1625;49.884;8.666;2023-03-17T04:12:25;6.10;99.90
3226;DHT22;1625;49.884;8.666;2023-03-17T04:14:51;6.10;99.90
3226;DHT22;1625;49.884;8.666;2023-03-17T04:17:16;6.00;99.90
3226;DHT22;1625;49.884;8.666;2023-03-17T04:19:42;6.00;99.90
3226;DHT22;1625;49.884;8.666;2023-03-17T04:22:10;6.00;99.90
3226;DHT22;1625;49.884;8.666;2023-03-17T04:24:36;6.00;99.90
3226;DHT22;1625;49.884;8.666;2023-03-17T04:27:02;6.00;99.90
3226;DHT22;1625;49.884;8.666;2023-03-17T04:29:28;6.00;99.90
3226;DHT22;1625;49.884;8.666;2023-03-17T04:31:53;6.00;99.90
3226;DHT22;1625;49.884;8.666;2023-03-17T04:34:19;6.00;99.90
3226;DHT22;1625;49.884;8.666;2023-03-17T04:36:46;5.90;99.90
3226;DHT22;1625;49.884;8.666;2023-03-17T04:39:13;5.90;99.90
3226;DHT22;1625;49.884;8.666;2023-03-17T04:41:39;5.90;99.90
3226;DHT22;1625;49.884;8.666;2023-03-17T04:44:04;5.80;99.90
3226;DHT22;1625;49.884;8.666;2023-03-17T04:46:30;5.80;99.90
3226;DHT22;1625;49.884;8.666;2023-03-17T04:48:56;5.80;99.90
3226;DHT22;1625;49.884;8.666;2023-03-17T04:51:22;5.80;99.90
3226;DHT22;1625;49.884;8.666;2023-03-17T04:53:47;5.70;99.90
3226;DHT22;1625;49.884;8.666;2023-03-17T04:56:13;5.70;99.90
3226;DHT22;1625;49.884;8.666;2023-03-17T04:58:39;5.70;99.90
3226;DHT22;1625;49.884;8.666;2023-03-17T05:01:04;5.70;99.90
3226;DHT22;1625;49.884;8.666;2023-03-17T05:03:30;5.70;99.90
3226;DHT22;1625;49.884;8.666;2023-03-17T05:05:58;5.70;99.90
3226;DHT22;1625;49.884;8.666;2023-03-17T05:08:25;5.60;99.90
3226;DHT22;1625;49.884;8.666;2023-03-17T05:10:53;5.60;99.90
3226;DHT22;1625;49.884;8.666;2023-03-17T05:13:19;5.50;99.90
3226;DHT22;1625;49.884;8.666;2023-03-17T05:15:49;5.60;99.90
3226;DHT22;1625;49.884;8.666;2023-03-17T05:18:15;5.60;99.90
3226;DHT22;1625;49.884;8.666;2023-03-17T05:20:40;5.60;99.90
3226;DHT22;1625;49.884;8.666;2023-03-17T05:23:06;5.60;99.90
3226;DHT22;1625;49.884;8.666;2023-03-17T05:27:58;5.50;99.90
3226;DHT22;1625;49.884;8.666;2023-03-17T05:30:24;5.50;99.90
3226;DHT22;1625;49.884;8.666;2023-03-17T05:32:50;5.50;99.90
3226;DHT22;1625;49.884;8.666;2023-03-17T05:35:16;5.40;99.90
3226;DHT22;1625;49.884;8.666;2023-03-17T05:37:42;5.40;99.90
3226;DHT22;1625;49.884;8.666;2023-03-17T05:40:08;5.40;99.90
3226;DHT22;1625;49.884;8.666;2023-03-17T05:42:34;5.30;99.90
3226;DHT22;1625;49.884;8.666;2023-03-17T05:44:59;5.30;99.90
3226;DHT22;1625;49.884;8.666;2023-03-17T05:47:25;5.30;99.90
3226;DHT22;1625;49.884;8.666;2023-03-17T05:49:50;5.20;99.90
3226;DHT22;1625;49.884;8.666;2023-03-17T05:52:17;5.20;99.90
3226;DHT22;1625;49.884;8.666;2023-03-17T05:54:42;5.30;99.90
3226;DHT22;1625;49.884;8.666;2023-03-17T05:57:09;5.20;99.90
3226;DHT22;1625;49.884;8.666;2023-03-17T05:59:35;5.20;99.90
3226;DHT22;1625;49.884;8.666;2023-03-17T06:02:01;5.20;99.90
3226;DHT22;1625;49.884;8.666;2023-03-17T06:04:27;5.20;99.90
3226;DHT22;1625;49.884;8.666;2023-03-17T06:14:13;5.30;99.90
3226;DHT22;1625;49.884;8.666;2023-03-17T06:16:40;5.30;99.90
3226;DHT22;1625;49.884;8.666;2023-03-17T06:19:07;5.30;99.90
3226;DHT22;1625;49.884;8.666;2023-03-17T06:22:01;5.20;99.90
3226;DHT22;1625;49.884;8.666;2023-03-17T06:24:54;5.20;99.90
3226;DHT22;1625;49.884;8.666;2023-03-17T06:27:42;5.20;99.90
3226;DHT22;1625;49.884;8.666;2023-03-17T06:51:50;5.40;99.90
3226;DHT22;1625;49.884;8.666;2023-03-17T06:54:16;5.40;99.90
3226;DHT22;1625;49.884;8.666;2023-03-17T06:56:43;5.40;99.90
3226;DHT22;1625;49.884;8.666;2023-03-17T06:59:22;5.50;99.90
3226;DHT22;1625;49.884;8.666;2023-03-17T07:01:48;5.70;99.90
3226;DHT22;1625;49.884;8.666;2023-03-17T07:04:14;5.90;99.90
3226;DHT22;1625;49.884;8.666;2023-03-17T07:06:40;6.00;99.90
3226;DHT22;1625;49.884;8.666;2023-03-17T07:09:07;6.10;99.90
3226;DHT22;1625;49.884;8.666;2023-03-17T07:11:34;6.20;99.90
3226;DHT22;1625;49.884;8.666;2023-03-17T07:14:00;6.40;99.90
3226;DHT22;1625;49.884;8.666;2023-03-17T07:16:25;6.50;99.90
3226;DHT22;1625;49.884;8.666;2023-03-17T07:18:51;6.60;99.90
3226;DHT22;1625;49.884;8.666;2023-03-17T07:21:19;6.70;99.90
3226;DHT22;1625;49.884;8.666;2023-03-17T07:23:51;6.80;99.90
3226;DHT22;1625;49.884;8.666;2023-03-17T07:26:19;6.90;99.90
3226;DHT22;1625;49.884;8.666;2023-03-17T07:28:44;6.90;99.90
3226;DHT22;1625;49.884;8.666;2023-03-17T07:31:10;7.00;99.90
3226;DHT22;1625;49.884;8.666;2023-03-17T09:25:02;11.10;99.90
3226;DHT22;1625;49.884;8.666;2023-03-17T09:27:28;11.30;99.90
3226;DHT22;1625;49.884;8.666;2023-03-17T09:29:53;11.40;99.90
3226;DHT22;1625;49.884;8.666;2023-03-17T09:32:19;11.50;99.90
3226;DHT22;1625;49.884;8.666;2023-03-17T09:34:46;11.50;99.90
3226;DHT22;1625;49.884;8.666;2023-03-17T09:37:12;11.60;99.90
3226;DHT22;1625;49.884;8.666;2023-03-17T09:39:38;11.60;99.90
3226;DHT22;1625;49.884;8.666;2023-03-17T09:45:10;11.70;99.90
3226;DHT22;1625;49.884;8.666;2023-03-17T09:47:52;11.80;99.90
3226;DHT22;1625;49.884;8.666;2023-03-17T09:50:26;12.00;99.90
3226;DHT22;1625;49.884;8.666;2023-03-17T09:52:54;12.10;99.90
3226;DHT22;1625;49.884;8.666;2023-03-17T09:55:29;12.20;99.90
3226;DHT22;1625;49.884;8.666;2023-03-17T09:57:56;12.30;99.90
3226;DHT22;1625;49.884;8.666;2023-03-17T10:00:24;12.30;99.90
3226;DHT22;1625;49.884;8.666;2023-03-17T10:02:54;12.40;99.90
3226;DHT22;1625;49.884;8.666;2023-03-17T10:08:22;12.60;99.90
3226;DHT22;1625;49.884;8.666;2023-03-17T10:11:00;12.80;99.90
3226;DHT22;1625;49.884;8.666;2023-03-17T10:19:28;12.90;99.90
3226;DHT22;1625;49.884;8.666;2023-03-17T10:21:59;13.00;99.90
3226;DHT22;1625;49.884;8.666;2023-03-17T10:24:29;13.10;99.90
3226;DHT22;1625;49.884;8.666;2023-03-17T10:26:58;13.20;99.90
3226;DHT22;1625;49.884;8.666;2023-03-17T10:29:24;13.30;99.90
3226;DHT22;1625;49.884;8.666;2023-03-17T10:31:53;13.30;99.90
3226;DHT22;1625;49.884;8.666;2023-03-17T10:34:29;13.40;99.90
3226;DHT22;1625;49.884;8.666;2023-03-17T10:37:06;13.40;99.90
3226;DHT22;1625;49.884;8.666;2023-03-17T10:39:54;13.50;99.90
3226;DHT22;1625;49.884;8.666;2023-03-17T10:42:23;13.60;99.90
3226;DHT22;1625;49.884;8.666;2023-03-17T10:44:58;13.60;99.90
3226;DHT22;1625;49.884;8.666;2023-03-17T10:47:29;13.60;99.90
3226;DHT22;1625;49.884;8.666;2023-03-17T10:50:00;13.70;99.90
3226;DHT22;1625;49.884;8.666;2023-03-17T10:52:34;13.80;99.90
3226;DHT22;1625;49.884;8.666;2023-03-17T10:55:07;13.90;99.90
3226;DHT22;1625;49.884;8.666;2023-03-17T10:57:36;14.00;99.90
3226;DHT22;1625;49.884;8.666;2023-03-17T11:00:15;14.10;99.90
3226;DHT22;1625;49.884;8.666;2023-03-17T11:02:54;14.20;99.90
3226;DHT22;1625;49.884;8.666;2023-03-17T11:05:25;14.20;99.90
3226;DHT22;1625;49.884;8.666;2023-03-17T11:07:57;14.30;99.90
3226;DHT22;1625;49.884;8.666;2023-03-17T11:10:36;14.40;99.90
3226;DHT22;1625;49.884;8.666;2023-03-17T11:13:02;14.50;99.90
3226;DHT22;1625;49.884;8.666;2023-03-17T11:15:32;14.50;99.90
3226;DHT22;1625;49.884;8.666;2023-03-17T11:20:50;14.60;99.90
3226;DHT22;1625;49.884;8.666;2023-03-17T11:26:28;14.70;99.90
3226;DHT22;1625;49.884;8.666;2023-03-17T11:29:09;14.70;99.90
3226;DHT22;1625;49.884;8.666;2023-03-17T11:31:57;14.80;99.90
3226;DHT22;1625;49.884;8.666;2023-03-17T11:39:41;15.10;99.90
3226;DHT22;1625;49.884;8.666;2023-03-17T11:42:17;15.20;99.90
3226;DHT22;1625;49.884;8.666;2023-03-17T11:47:46;15.40;99.90
3226;DHT22;1625;49.884;8.666;2023-03-17T11:50:39;15.50;99.90
3226;DHT22;1625;49.884;8.666;2023-03-17T11:53:26;15.60;99.90
3226;DHT22;1625;49.884;8.666;2023-03-17T11:56:05;15.70;99.90
3226;DHT22;1625;49.884;8.666;2023-03-17T11:58:42;15.80;99.90
3226;DHT22;1625;49.884;8.666;2023-03-17T12:01:14;15.90;99.90
3226;DHT22;1625;49.884;8.666;2023-03-17T12:04:16;15.90;99.90
3226;DHT22;1625;49.884;8.666;2023-03-17T12:06:49;16.00;99.90
3226;DHT22;1625;49.884;8.666;2023-03-17T12:09:39;16.10;99.90
3226;DHT22;1625;49.884;8.666;2023-03-17T12:12:08;16.10;99.90
3226;DHT22;1625;49.884;8.666;2023-03-17T12:14:44;16.10;99.90
3226;DHT22;1625;49.884;8.666;2023-03-17T12:17:35;16.10;99.90
3226;DHT22;1625;49.884;8.666;2023-03-17T12:20:19;16.20;99.90
3226;DHT22;1625;49.884;8.666;2023-03-17T12:23:00;16.30;99.90
3226;DHT22;1625;49.884;8.666;2023-03-17T12:25:31;16.30;99.90
3226;DHT22;1625;49.884;8.666;2023-03-17T12:30:48;16.50;99.90
3226;DHT22;1625;49.884;8.666;2023-03-17T12:33:25;16.50;99.80
3226;DHT22;1625;49.884;8.666;2023-03-17T12:35:52;16.50;99.80
3226;DHT22;1625;49.884;8.666;2023-03-17T12:38:24;16.60;99.40
3226;DHT22;1625;49.884;8.666;2023-03-17T12:41:18;16.50;99.00
3226;DHT22;1625;49.884;8.666;2023-03-17T12:47:01;16.50;98.40
3226;DHT22;1625;49.884;8.666;2023-03-17T12:54:36;16.60;98.20
3226;DHT22;1625;49.884;8.666;2023-03-17T12:57:05;16.60;97.20
3226;DHT22;1625;49.884;8.666;2023-03-17T12:59:35;16.60;97.10
3226;DHT22;1625;49.884;8.666;2023-03-17T13:04:51;16.50;96.20
3226;DHT22;1625;49.884;8.666;2023-03-17T13:07:23;16.60;96.40
3226;DHT22;1625;49.884;8.666;2023-03-17T13:17:47;16.70;95.60
3226;DHT22;1625;49.884;8.666;2023-03-17T13:20:19;16.70;95.80
3226;DHT22;1625;49.884;8.666;2023-03-17T13:23:25;16.80;96.10
3226;DHT22;1625;49.884;8.666;2023-03-17T13:25:57;16.90;95.60
3226;DHT22;1625;49.884;8.666;2023-03-17T13:28:40;16.90;95.70
3226;DHT22;1625;49.884;8.666;2023-03-17T13:33:44;16.90;94.60
3226;DHT22;1625;49.884;8.666;2023-03-17T13:39:17;16.90;94.50
3226;DHT22;1625;49.884;8.666;2023-03-17T13:42:31;16.80;94.50
3226;DHT22;1625;49.884;8.666;2023-03-17T13:45:12;16.80;94.70
3226;DHT22;1625;49.884;8.666;2023-03-17T13:47:41;16.80;94.20
3226;DHT22;1625;49.884;8.666;2023-03-17T13:50:17;16.90;93.40
3226;DHT22;1625;49.884;8.666;2023-03-17T13:52:56;16.90;93.40
3226;DHT22;1625;49.884;8.666;2023-03-17T13:58:15;16.90;94.70
3226;DHT22;1625;49.884;8.666;2023-03-17T14:00:46;16.90;93.50
3226;DHT22;1625;49.884;8.666;2023-03-17T14:03:19;16.90;93.10
3226;DHT22;1625;49.884;8.666;2023-03-17T14:05:49;16.80;92.80
3226;DHT22;1625;49.884;8.666;2023-03-17T14:08:21;16.80;94.10
3226;DHT22;1625;49.884;8.666;2023-03-17T14:10:56;16.80;94.00
3226;DHT22;1625;49.884;8.666;2023-03-17T14:13:28;16.80;94.00
3226;DHT22;1625;49.884;8.666;2023-03-17T14:15:59;16.80;93.50
3226;DHT22;1625;49.884;8.666;2023-03-17T14:18:39;16.80;93.70
3226;DHT22;1625;49.884;8.666;2023-03-17T14:21:22;16.80;93.50
3226;DHT22;1625;49.884;8.666;2023-03-17T14:23:59;16.80;93.60
3226;DHT22;1625;49.884;8.666;2023-03-17T14:26:28;16.80;93.50
3226;DHT22;1625;49.884;8.666;2023-03-17T14:28:58;16.90;93.50
3226;DHT22;1625;49.884;8.666;2023-03-17T14:31:26;16.90;93.20
3226;DHT22;1625;49.884;8.666;2023-03-17T14:33:57;16.90;93.70
3226;DHT22;1625;49.884;8.666;2023-03-17T14:36:24;16.90;92.60
3226;DHT22;1625;49.884;8.666;2023-03-17T14:38:52;16.90;93.20
3226;DHT22;1625;49.884;8.666;2023-03-17T14:41:23;16.90;93.20
3226;DHT22;1625;49.884;8.666;2023-03-17T14:43:56;16.80;92.90
3226;DHT22;1625;49.884;8.666;2023-03-17T14:46:32;16.70;93.90
3226;DHT22;1625;49.884;8.666;2023-03-17T14:49:15;16.60;94.10
3226;DHT22;1625;49.884;8.666;2023-03-17T14:51:41;16.50;93.90
3226;DHT22;1625;49.884;8.666;2023-03-17T14:54:15;16.50;94.00
3226;DHT22;1625;49.884;8.666;2023-03-17T14:56:50;16.40;93.40
3226;DHT22;1625;49.884;8.666;2023-03-17T14:59:21;16.30;93.00
3226;DHT22;1625;49.884;8.666;2023-03-17T15:01:53;16.30;92.30
3226;DHT22;1625;49.884;8.666;2023-03-17T15:04:22;16.30;91.60
3226;DHT22;1625;49.884;8.666;2023-03-17T15:06:56;16.20;91.30
3226;DHT22;1625;49.884;8.666;2023-03-17T15:12:05;16.10;90.80
3226;DHT22;1625;49.884;8.666;2023-03-17T15:14:38;16.00;90.70
3226;DHT22;1625;49.884;8.666;2023-03-17T15:17:13;16.00;90.70
3226;DHT22;1625;49.884;8.666;2023-03-17T15:19:42;16.00;90.70
3226;DHT22;1625;49.884;8.666;2023-03-17T15:22:23;16.00;90.70
3226;DHT22;1625;49.884;8.666;2023-03-17T15:27:25;15.90;90.90
3226;DHT22;1625;49.884;8.666;2023-03-17T15:29:51;15.90;91.30
3226;DHT22;1625;49.884;8.666;2023-03-17T15:32:19;15.90;91.10
3226;DHT22;1625;49.884;8.666;2023-03-17T15:34:50;15.80;91.30
3226;DHT22;1625;49.884;8.666;2023-03-17T15:37:21;15.80;91.30
3226;DHT22;1625;49.884;8.666;2023-03-17T15:39:48;15.80;91.40
3226;DHT22;1625;49.884;8.666;2023-03-17T15:42:15;15.90;91.50
3226;DHT22;1625;49.884;8.666;2023-03-17T15:44:40;15.80;91.00
3226;DHT22;1625;49.884;8.666;2023-03-17T15:47:06;15.90;91.00
3226;DHT22;1625;49.884;8.666;2023-03-17T15:49:35;15.90;90.60
3226;DHT22;1625;49.884;8.666;2023-03-17T15:52:01;15.90;90.50
3226;DHT22;1625;49.884;8.666;2023-03-17T15:54:26;15.80;90.50
3226;DHT22;1625;49.884;8.666;2023-03-17T15:56:52;15.90;90.80
3226;DHT22;1625;49.884;8.666;2023-03-17T15:59:17;15.80;90.40
3226;DHT22;1625;49.884;8.666;2023-03-17T16:01:43;15.80;90.70
3226;DHT22;1625;49.884;8.666;2023-03-17T16:04:08;15.80;90.50
3226;DHT22;1625;49.884;8.666;2023-03-17T16:06:34;15.80;90.00
3226;DHT22;1625;49.884;8.666;2023-03-17T16:09:00;15.70;90.00
3226;DHT22;1625;49.884;8.666;2023-03-17T16:11:29;15.70;89.90
3226;DHT22;1625;49.884;8.666;2023-03-17T16:13:56;15.60;90.10
3226;DHT22;1625;49.884;8.666;2023-03-17T16:16:36;15.70;89.90
3226;DHT22;1625;49.884;8.666;2023-03-17T16:19:07;15.60;90.40
3226;DHT22;1625;49.884;8.666;2023-03-17T16:21:36;15.60;90.40
3226;DHT22;1625;49.884;8.666;2023-03-17T16:24:01;15.50;90.60
3226;DHT22;1625;49.884;8.666;2023-03-17T16:26:27;15.50;90.60
3226;DHT22;1625;49.884;8.666;2023-03-17T16:28:52;15.50;91.00
3226;DHT22;1625;49.884;8.666;2023-03-17T16:31:24;15.50;91.30
3226;DHT22;1625;49.884;8.666;2023-03-17T16:33:51;15.50;91.40
3226;DHT22;1625;49.884;8.666;2023-03-17T16:36:18;15.50;91.70
3226;DHT22;1625;49.884;8.666;2023-03-17T16:38:45;15.40;92.30
3226;DHT22;1625;49.884;8.666;2023-03-17T16:41:22;15.30;92.80
3226;DHT22;1625;49.884;8.666;2023-03-17T16:43:53;15.30;93.40
3226;DHT22;1625;49.884;8.666;2023-03-17T16:46:21;15.20;94.10
3226;DHT22;1625;49.884;8.666;2023-03-17T16:48:48;15.10;94.20
3226;DHT22;1625;49.884;8.666;2023-03-17T16:51:14;15.10;94.60
3226;DHT22;1625;49.884;8.666;2023-03-17T16:53:40;15.10;94.90
3226;DHT22;1625;49.884;8.666;2023-03-17T16:56:13;15.00;95.10
3226;DHT22;1625;49.884;8.666;2023-03-17T16:58:38;14.90;95.40
3226;DHT22;1625;49.884;8.666;2023-03-17T17:01:13;14.90;96.00
3226;DHT22;1625;49.884;8.666;2023-03-17T17:03:39;14.80;96.40
3226;DHT22;1625;49.884;8.666;2023-03-17T17:06:05;14.90;96.70
3226;DHT22;1625;49.884;8.666;2023-03-17T17:08:32;14.80;96.90
3226;DHT22;1625;49.884;8.666;2023-03-17T17:10:57;14.70;97.10
3226;DHT22;1625;49.884;8.666;2023-03-17T17:13:23;14.70;97.30
3226;DHT22;1625;49.884;8.666;2023-03-17T17:15:48;14.60;97.50
3226;DHT22;1625;49.884;8.666;2023-03-17T17:18:18;14.60;97.70
3226;DHT22;1625;49.884;8.666;2023-03-17T17:20:47;14.50;98.20
3226;DHT22;1625;49.884;8.666;2023-03-17T17:23:18;14.50;98.90
3226;DHT22;1625;49.884;8.666;2023-03-17T17:25:45;14.40;98.60
3226;DHT22;1625;49.884;8.666;2023-03-17T17:28:12;14.40;99.30
3226;DHT22;1625;49.884;8.666;2023-03-17T17:30:38;14.40;99.80
3226;DHT22;1625;49.884;8.666;2023-03-17T17:33:07;14.30;99.70
3226;DHT22;1625;49.884;8.666;2023-03-17T17:35:33;14.30;99.90
3226;DHT22;1625;49.884;8.666;2023-03-17T17:38:00;14.20;99.90
3226;DHT22;1625;49.884;8.666;2023-03-17T17:40:26;14.20;99.90
3226;DHT22;1625;49.884;8.666;2023-03-17T17:42:54;14.20;99.90
3226;DHT22;1625;49.884;8.666;2023-03-17T17:45:19;14.10;99.90
3226;DHT22;1625;49.884;8.666;2023-03-17T17:47:46;14.10;99.90
3226;DHT22;1625;49.884;8.666;2023-03-17T17:50:19;14.10;99.90
3226;DHT22;1625;49.884;8.666;2023-03-17T17:52:44;14.00;99.90
3226;DHT22;1625;49.884;8.666;2023-03-17T17:55:10;14.00;99.90
3226;DHT22;1625;49.884;8.666;2023-03-17T17:57:35;13.90;99.90
3226;DHT22;1625;49.884;8.666;2023-03-17T18:00:01;13.90;99.90
3226;DHT22;1625;49.884;8.666;2023-03-17T18:02:27;13.80;99.90
3226;DHT22;1625;49.884;8.666;2023-03-17T18:04:53;13.80;99.90
3226;DHT22;1625;49.884;8.666;2023-03-17T18:07:18;13.80;99.90
3226;DHT22;1625;49.884;8.666;2023-03-17T18:09:44;13.80;99.90
3226;DHT22;1625;49.884;8.666;2023-03-17T18:12:10;13.80;99.90
3226;DHT22;1625;49.884;8.666;2023-03-17T18:14:35;13.70;99.90
3226;DHT22;1625;49.884;8.666;2023-03-17T18:17:01;13.80;99.90
3226;DHT22;1625;49.884;8.666;2023-03-17T18:19:26;13.70;99.90
3226;DHT22;1625;49.884;8.666;2023-03-17T18:21:52;13.70;99.90
3226;DHT22;1625;49.884;8.666;2023-03-17T18:24:17;13.70;99.90
3226;DHT22;1625;49.884;8.666;2023-03-17T18:26:43;13.70;99.90
3226;DHT22;1625;49.884;8.666;2023-03-17T18:29:09;13.60;99.90
3226;DHT22;1625;49.884;8.666;2023-03-17T18:31:40;13.60;99.90
3226;DHT22;1625;49.884;8.666;2023-03-17T18:34:28;13.50;99.90
3226;DHT22;1625;49.884;8.666;2023-03-17T18:36:58;13.50;99.90
3226;DHT22;1625;49.884;8.666;2023-03-17T18:39:25;13.50;99.90
3226;DHT22;1625;49.884;8.666;2023-03-17T18:41:54;13.50;99.90
3226;DHT22;1625;49.884;8.666;2023-03-17T18:44:20;13.40;99.90
3226;DHT22;1625;49.884;8.666;2023-03-17T18:46:47;13.40;99.90
3226;DHT22;1625;49.884;8.666;2023-03-17T18:49:13;13.40;99.90
3226;DHT22;1625;49.884;8.666;2023-03-17T18:51:38;13.40;99.90
3226;DHT22;1625;49.884;8.666;2023-03-17T18:54:04;13.30;99.90
3226;DHT22;1625;49.884;8.666;2023-03-17T18:56:30;13.30;99.90
3226;DHT22;1625;49.884;8.666;2023-03-17T18:58:57;13.20;99.90
3226;DHT22;1625;49.884;8.666;2023-03-17T19:01:23;13.20;99.90
3226;DHT22;1625;49.884;8.666;2023-03-17T19:03:49;13.20;99.90
3226;DHT22;1625;49.884;8.666;2023-03-17T19:06:17;13.20;99.90
3226;DHT22;1625;49.884;8.666;2023-03-17T19:08:43;13.20;99.90
3226;DHT22;1625;49.884;8.666;2023-03-17T19:11:11;13.20;99.90
3226;DHT22;1625;49.884;8.666;2023-03-17T19:13:38;13.10;99.90
3226;DHT22;1625;49.884;8.666;2023-03-17T19:16:05;13.20;99.90
3226;DHT22;1625;49.884;8.666;2023-03-17T19:18:32;13.10;99.90
3226;DHT22;1625;49.884;8.666;2023-03-17T19:20:58;13.20;99.90
3226;DHT22;1625;49.884;8.666;2023-03-17T19:23:23;13.10;99.90
3226;DHT22;1625;49.884;8.666;2023-03-17T19:25:49;13.10;99.90
3226;DHT22;1625;49.884;8.666;2023-03-17T19:28:18;13.10;99.90
3226;DHT22;1625;49.884;8.666;2023-03-17T19:30:44;13.10;99.90
3226;DHT22;1625;49.884;8.666;2023-03-17T19:33:11;13.00;99.90
3226;DHT22;1625;49.884;8.666;2023-03-17T19:35:37;13.00;99.90
3226;DHT22;1625;49.884;8.666;2023-03-17T19:38:03;13.00;99.90
3226;DHT22;1625;49.884;8.666;2023-03-17T19:40:29;12.90;99.90
3226;DHT22;1625;49.884;8.666;2023-03-17T19:42:55;12.90;99.90
3226;DHT22;1625;49.884;8.666;2023-03-17T19:45:20;12.90;99.90
3226;DHT22;1625;49.884;8.666;2023-03-17T19:47:46;12.90;99.90
3226;DHT22;1625;49.884;8.666;2023-03-17T19:50:12;12.80;99.90
3226;DHT22;1625;49.884;8.666;2023-03-17T19:52:38;12.80;99.90
3226;DHT22;1625;49.884;8.666;2023-03-17T19:55:04;12.80;99.90
3226;DHT22;1625;49.884;8.666;2023-03-17T19:57:30;12.80;99.90